Time;durP1;ratioP1;P1;durP2;ratioP2;P2;SDS_P1;SDS_P2;PMS_P1;PMS_P2;Temp;Humidity;BMP_temperature;BMP_pressure;BME280_temperature;BME280_humidity;BME280_pressure;Samples;Min_cycle;Max_cycle;Signal;HPM_P1;HPM_P2
2023/07/01 00:01:40;;;;;;;4.83;3.33;;;18.00;99.90;;;;;;5085722;28;20188;-69
2023/07/01 00:04:06;;;;;;;5.00;3.30;;;18.10;99.90;;;;;;5080098;28;20191;-69
2023/07/01 00:06:32;;;;;;;4.53;3.27;;;18.10;99.90;;;;;;5084483;28;20242;-69
2023/07/01 00:08:58;;;;;;;3.70;3.00;;;18.10;99.90;;;;;;5078484;28;20440;-69
2023/07/01 00:11:23;;;;;;;3.80;3.50;;;18.00;99.90;;;;;;5082950;28;20239;-69
2023/07/01 00:13:49;;;;;;;3.70;3.27;;;18.10;99.90;;;;;;5080901;28;20439;-69
2023/07/01 00:16:15;;;;;;;3.40;2.83;;;18.10;99.90;;;;;;5068846;28;20702;-69
2023/07/01 00:18:42;;;;;;;3.33;3.00;;;18.10;99.90;;;;;;5067363;28;20630;-69
2023/07/01 00:21:08;;;;;;;3.50;3.13;;;18.20;99.90;;;;;;5068551;28;20198;-69
2023/07/01 00:23:34;;;;;;;4.10;3.20;;;18.20;99.90;;;;;;5067769;28;20470;-69
2023/07/01 00:26:00;;;;;;;4.67;3.00;;;18.20;99.90;;;;;;5070680;28;20447;-69
2023/07/01 00:28:26;;;;;;;5.00;3.23;;;18.20;99.90;;;;;;5088694;28;20906;-69
2023/07/01 00:30:52;;;;;;;4.83;3.17;;;18.20;99.90;;;;;;5088755;28;20670;-69
2023/07/01 00:33:17;;;;;;;4.30;2.80;;;18.20;99.90;;;;;;5087645;28;20507;-69
2023/07/01 00:35:43;;;;;;;3.80;3.40;;;18.20;99.90;;;;;;5088742;28;20176;-69
2023/07/01 00:38:09;;;;;;;4.23;3.30;;;18.30;99.90;;;;;;5088679;28;20254;-69
2023/07/01 00:40:35;;;;;;;5.00;3.60;;;18.30;99.90;;;;;;5088741;28;20193;-68
2023/07/01 00:43:00;;;;;;;4.27;2.93;;;18.30;99.90;;;;;;5091313;28;20172;-69
2023/07/01 00:45:26;;;;;;;3.33;2.93;;;18.30;99.90;;;;;;5092823;28;20183;-69
2023/07/01 00:47:52;;;;;;;3.63;3.30;;;18.30;99.90;;;;;;5092834;28;20660;-69
2023/07/01 00:50:18;;;;;;;3.40;3.10;;;18.30;99.90;;;;;;5092695;28;20188;-69
2023/07/01 00:52:44;;;;;;;3.47;2.93;;;18.30;99.90;;;;;;5091854;28;20465;-69
2023/07/01 00:55:10;;;;;;;3.00;2.73;;;18.30;99.90;;;;;;5091050;28;20459;-69
2023/07/01 00:57:37;;;;;;;3.73;2.47;;;18.30;99.90;;;;;;5090971;28;20740;-69
2023/07/01 01:00:10;;;;;;;3.43;3.13;;;18.30;99.90;;;;;;5091199;28;20450;-69
2023/07/01 01:02:55;;;;;;;3.30;3.10;;;18.30;99.90;;;;;;5091959;28;20413;-69
2023/07/01 01:05:40;;;;;;;3.10;2.70;;;18.20;99.90;;;;;;5091988;28;20502;-69
2023/07/01 01:08:11;;;;;;;4.03;2.87;;;18.20;99.90;;;;;;5092411;28;20418;-69
2023/07/01 01:10:40;;;;;;;4.40;3.23;;;18.20;99.90;;;;;;5091081;28;20519;-69
2023/07/01 01:13:07;;;;;;;6.10;3.20;;;18.30;99.90;;;;;;5091264;28;20489;-69
2023/07/01 01:15:33;;;;;;;4.17;3.10;;;18.30;99.90;;;;;;5092385;28;20417;-69
2023/07/01 01:18:04;;;;;;;3.10;2.80;;;18.30;99.90;;;;;;5092352;28;20406;-69
2023/07/01 01:20:33;;;;;;;2.90;2.60;;;18.30;99.90;;;;;;5092068;28;20422;-69
2023/07/01 01:23:03;;;;;;;3.80;2.67;;;18.30;99.90;;;;;;5091291;28;20467;-69
2023/07/01 01:25:47;;;;;;;4.20;2.83;;;18.30;99.90;;;;;;5091969;28;21070;-69
2023/07/01 01:28:13;;;;;;;2.70;2.50;;;18.30;99.90;;;;;;5071654;28;20783;-69
2023/07/01 01:30:39;;;;;;;3.47;2.70;;;18.30;99.90;;;;;;5073242;28;20454;-69
2023/07/01 01:33:06;;;;;;;3.63;2.67;;;18.30;99.90;;;;;;5090696;28;20453;-69
2023/07/01 01:35:32;;;;;;;5.20;2.87;;;18.30;99.90;;;;;;5090483;28;20164;-69
2023/07/01 01:38:16;;;;;;;3.07;2.47;;;18.30;99.90;;;;;;5091881;28;20778;-69
2023/07/01 01:40:47;;;;;;;3.53;2.73;;;18.30;99.90;;;;;;5091689;28;20461;-69
2023/07/01 01:43:25;;;;;;;4.00;3.00;;;18.30;99.90;;;;;;5090699;28;20484;-69
2023/07/01 01:45:51;;;;;;;2.87;2.60;;;18.30;99.90;;;;;;5091692;28;20406;-69
2023/07/01 01:48:17;;;;;;;3.90;3.10;;;18.30;99.90;;;;;;5091715;28;20422;-69
2023/07/01 01:50:47;;;;;;;4.07;3.07;;;18.30;99.90;;;;;;5091450;28;20441;-69
2023/07/01 01:53:14;;;;;;;3.87;2.70;;;18.30;99.90;;;;;;5089165;28;20461;-68
2023/07/01 01:55:40;;;;;;;3.80;2.80;;;18.30;99.90;;;;;;5091224;28;20407;-68
2023/07/01 01:58:06;;;;;;;4.80;3.10;;;18.40;99.90;;;;;;5091030;28;20498;-68
2023/07/01 02:00:33;;;;;;;4.13;3.73;;;18.40;99.90;;;;;;5090999;28;20422;-68
2023/07/01 02:03:00;;;;;;;3.07;2.77;;;18.40;99.90;;;;;;5090442;28;20414;-68
2023/07/01 02:05:25;;;;;;;5.23;3.13;;;18.50;99.90;;;;;;5091053;28;20787;-68
2023/07/01 02:07:51;;;;;;;2.90;2.60;;;18.50;99.90;;;;;;5091310;28;20425;-68
2023/07/01 02:10:19;;;;;;;3.30;3.00;;;18.50;99.90;;;;;;5073042;28;20204;-68
2023/07/01 02:12:45;;;;;;;3.00;2.70;;;18.40;99.90;;;;;;5090161;28;20249;-68
2023/07/01 02:15:11;;;;;;;3.13;2.83;;;18.40;99.90;;;;;;5089723;28;20418;-69
2023/07/01 02:17:37;;;;;;;3.60;3.00;;;18.40;99.90;;;;;;5091181;28;20463;-69
2023/07/01 02:20:04;;;;;;;5.43;2.77;;;18.40;99.90;;;;;;5089659;28;20204;-69
2023/07/01 02:22:29;;;;;;;4.93;2.70;;;18.50;99.90;;;;;;5090295;28;20173;-68
2023/07/01 02:24:55;;;;;;;5.17;3.07;;;18.50;99.90;;;;;;5090523;28;20416;-69
2023/07/01 02:27:22;;;;;;;3.20;2.67;;;18.50;99.90;;;;;;5090858;28;20419;-69
2023/07/01 02:29:48;;;;;;;3.13;2.60;;;18.50;99.90;;;;;;5090710;28;20203;-69
2023/07/01 02:32:14;;;;;;;3.10;2.80;;;18.50;99.90;;;;;;5090124;28;20450;-69
2023/07/01 02:34:39;;;;;;;3.97;3.20;;;18.50;99.90;;;;;;5090245;28;20858;-69
2023/07/01 02:37:05;;;;;;;3.40;2.50;;;18.50;99.90;;;;;;5090620;28;20259;-69
2023/07/01 02:39:31;;;;;;;3.10;2.80;;;18.50;99.90;;;;;;5090559;28;20692;-69
2023/07/01 02:41:57;;;;;;;3.00;2.73;;;18.50;99.90;;;;;;5090601;28;20181;-69
2023/07/01 02:44:22;;;;;;;5.63;2.70;;;18.50;99.90;;;;;;5090004;28;20192;-69
2023/07/01 02:46:48;;;;;;;4.83;3.47;;;18.60;99.90;;;;;;5090410;28;20191;-68
2023/07/01 02:49:14;;;;;;;2.83;2.60;;;18.60;99.90;;;;;;5090455;28;20660;-67
2023/07/01 02:51:41;;;;;;;3.20;2.73;;;18.60;99.90;;;;;;5090164;28;20765;-68
2023/07/01 02:54:07;;;;;;;3.83;2.23;;;18.60;99.90;;;;;;5089585;28;20255;-68
2023/07/01 02:56:32;;;;;;;5.07;3.10;;;18.50;99.90;;;;;;5090078;28;20414;-68
2023/07/01 02:58:58;;;;;;;3.33;3.03;;;18.50;99.90;;;;;;5088733;28;20410;-68
2023/07/01 03:01:24;;;;;;;2.43;2.20;;;18.50;99.90;;;;;;5088002;28;20279;-68
2023/07/01 03:03:50;;;;;;;3.80;2.80;;;18.50;99.90;;;;;;5088505;28;20188;-68
2023/07/01 03:06:18;;;;;;;2.60;2.40;;;18.60;99.90;;;;;;5089885;28;20602;-68
2023/07/01 03:08:44;;;;;;;3.53;2.93;;;18.60;99.90;;;;;;5090009;28;20803;-68
2023/07/01 03:11:09;;;;;;;4.63;2.50;;;18.60;99.90;;;;;;5088755;28;20429;-69
2023/07/01 03:13:37;;;;;;;3.53;2.90;;;18.50;99.90;;;;;;5088962;28;20226;-69
2023/07/01 03:16:06;;;;;;;2.60;2.40;;;18.50;99.90;;;;;;5089980;28;20188;-68
2023/07/01 03:18:32;;;;;;;4.90;2.77;;;18.50;99.90;;;;;;5089828;28;20502;-69
2023/07/01 03:21:00;;;;;;;3.03;2.83;;;18.50;99.90;;;;;;5089553;28;20772;-69
2023/07/01 03:23:27;;;;;;;2.83;2.63;;;18.50;99.90;;;;;;5087530;28;20828;-69
2023/07/01 03:25:53;;;;;;;3.10;2.80;;;18.60;99.90;;;;;;5089578;28;20475;-69
2023/07/01 03:28:19;;;;;;;3.50;2.90;;;18.60;99.90;;;;;;5089391;28;20422;-69
2023/07/01 03:30:44;;;;;;;4.57;2.70;;;18.50;99.90;;;;;;5089755;28;20211;-69
2023/07/01 03:33:12;;;;;;;4.60;2.70;;;18.50;99.90;;;;;;5088539;28;20212;-69
2023/07/01 03:35:38;;;;;;;3.83;2.53;;;18.50;99.90;;;;;;5089669;28;20528;-69
2023/07/01 03:38:04;;;;;;;6.10;2.47;;;18.50;99.90;;;;;;5089664;28;20409;-69
2023/07/01 03:40:31;;;;;;;3.10;2.80;;;18.50;99.90;;;;;;5089368;28;20468;-69
2023/07/01 03:42:56;;;;;;;3.20;2.07;;;18.50;99.90;;;;;;5088962;28;20982;-69
2023/07/01 03:45:22;;;;;;;4.57;2.60;;;18.60;99.90;;;;;;5089237;28;20410;-69
2023/07/01 03:47:48;;;;;;;5.63;2.50;;;18.60;99.90;;;;;;5089272;28;20176;-69
2023/07/01 03:50:15;;;;;;;7.30;2.83;;;18.60;99.90;;;;;;5089326;28;20434;-69
2023/07/01 03:52:41;;;;;;;2.93;2.73;;;18.50;99.90;;;;;;5086945;28;20302;-69
2023/07/01 03:55:11;;;;;;;3.30;2.70;;;18.60;99.90;;;;;;5089102;28;20436;-68
2023/07/01 03:57:37;;;;;;;5.20;3.10;;;18.60;99.90;;;;;;5088055;28;20406;-69
2023/07/01 04:00:17;;;;;;;4.90;2.47;;;18.60;99.90;;;;;;5087880;28;20984;-68
2023/07/01 04:02:50;;;;;;;3.77;2.90;;;18.70;99.90;;;;;;5086508;28;20464;-69
2023/07/01 04:05:17;;;;;;;3.07;2.33;;;18.60;99.90;;;;;;5088546;28;20438;-69
2023/07/01 04:07:44;;;;;;;5.53;2.70;;;18.60;99.90;;;;;;5088632;28;20453;-69
2023/07/01 04:10:10;;;;;;;4.50;2.97;;;18.70;99.90;;;;;;5088662;28;20426;-69
2023/07/01 04:12:37;;;;;;;3.87;2.30;;;18.60;99.90;;;;;;5088266;28;20461;-69
2023/07/01 04:15:10;;;;;;;3.03;2.50;;;18.70;99.90;;;;;;5088772;28;21046;-69
2023/07/01 04:17:44;;;;;;;2.93;2.60;;;18.60;99.90;;;;;;5088107;28;20410;-69
2023/07/01 04:20:11;;;;;;;3.47;3.17;;;18.60;99.90;;;;;;5088968;28;20457;-69
2023/07/01 04:22:37;;;;;;;3.83;3.03;;;18.60;99.90;;;;;;5088193;28;20776;-69
2023/07/01 04:25:04;;;;;;;4.50;3.20;;;18.50;99.90;;;;;;5088444;28;20867;-69
2023/07/01 04:27:30;;;;;;;4.77;3.13;;;18.50;99.90;;;;;;5088646;28;20816;-69
2023/07/01 04:29:55;;;;;;;2.70;2.50;;;18.50;99.90;;;;;;5087285;28;20453;-69
2023/07/01 04:32:21;;;;;;;3.50;2.80;;;18.50;99.90;;;;;;5087981;28;20458;-69
2023/07/01 04:34:48;;;;;;;3.80;2.70;;;18.50;99.90;;;;;;5087392;28;20192;-69
2023/07/01 04:37:14;;;;;;;4.80;4.40;;;18.50;99.90;;;;;;5079062;28;20177;-69
2023/07/01 04:39:40;;;;;;;3.30;3.00;;;18.50;99.90;;;;;;5080924;28;20450;-69
2023/07/01 04:42:05;;;;;;;3.10;2.80;;;18.50;99.90;;;;;;5087509;28;20184;-69
2023/07/01 04:44:32;;;;;;;3.00;2.70;;;18.60;99.90;;;;;;5087082;28;20665;-69
2023/07/01 04:46:58;;;;;;;5.40;3.10;;;18.60;99.90;;;;;;5088695;28;20218;-68
2023/07/01 04:49:24;;;;;;;3.53;3.13;;;18.60;99.90;;;;;;5087367;28;20416;-68
2023/07/01 04:51:49;;;;;;;5.83;3.03;;;18.60;99.90;;;;;;5088610;28;20441;-68
2023/07/01 04:54:15;;;;;;;3.83;2.70;;;18.60;99.90;;;;;;5087506;28;20305;-68
2023/07/01 04:56:41;;;;;;;3.27;2.87;;;18.60;99.90;;;;;;5088142;28;20172;-68
2023/07/01 04:59:07;;;;;;;4.23;3.00;;;18.60;99.90;;;;;;5088216;28;20172;-70
2023/07/01 05:01:33;;;;;;;3.27;2.97;;;18.60;99.90;;;;;;5088506;28;20196;-69
2023/07/01 05:03:58;;;;;;;2.90;2.47;;;18.60;99.90;;;;;;5087449;28;20449;-69
2023/07/01 05:06:24;;;;;;;5.80;2.83;;;18.70;99.90;;;;;;5088532;28;20653;-69
2023/07/01 05:08:50;;;;;;;3.47;3.00;;;18.70;99.90;;;;;;5088441;28;20169;-69
2023/07/01 05:11:15;;;;;;;4.60;3.07;;;18.80;99.90;;;;;;5088399;28;20458;-69
2023/07/01 05:13:41;;;;;;;4.13;3.07;;;18.80;99.90;;;;;;5086084;28;20222;-69
2023/07/01 05:16:07;;;;;;;3.43;2.93;;;18.70;99.90;;;;;;5087214;28;20229;-69
2023/07/01 05:18:32;;;;;;;2.90;2.70;;;18.70;99.90;;;;;;5088346;28;20176;-69
2023/07/01 05:20:58;;;;;;;2.80;2.37;;;18.70;99.90;;;;;;5088437;28;20263;-69
2023/07/01 05:23:24;;;;;;;4.47;3.13;;;18.80;99.90;;;;;;5087352;28;20180;-69
2023/07/01 05:25:49;;;;;;;4.57;2.50;;;18.80;99.90;;;;;;5088355;28;20172;-69
2023/07/01 05:28:15;;;;;;;3.43;3.03;;;18.80;99.90;;;;;;5090219;28;20242;-69
2023/07/01 05:30:41;;;;;;;3.33;2.60;;;18.90;99.90;;;;;;5092003;28;20234;-69
2023/07/01 05:33:07;;;;;;;3.20;2.83;;;18.90;99.90;;;;;;5090878;28;20849;-69
2023/07/01 05:35:33;;;;;;;2.97;2.67;;;18.90;99.90;;;;;;5089937;28;20185;-69
2023/07/01 05:38:09;;;;;;;3.83;2.47;;;18.90;99.90;;;;;;5091707;28;20413;-69
2023/07/01 05:40:35;;;;;;;4.40;3.10;;;18.90;99.90;;;;;;5091819;28;20204;-69
2023/07/01 05:43:01;;;;;;;3.67;2.80;;;19.00;99.90;;;;;;5090983;28;20414;-68
2023/07/01 05:45:27;;;;;;;5.27;3.40;;;19.00;99.90;;;;;;5090016;28;20263;-70
2023/07/01 05:47:52;;;;;;;5.67;2.83;;;19.00;99.90;;;;;;5091568;28;20184;-67
2023/07/01 05:50:18;;;;;;;7.83;3.00;;;19.10;99.90;;;;;;5090078;28;20191;-67
2023/07/01 05:52:44;;;;;;;4.80;3.17;;;19.10;99.90;;;;;;5078732;28;20236;-67
2023/07/01 05:55:09;;;;;;;5.33;2.60;;;19.10;99.90;;;;;;5071086;28;20169;-68
2023/07/01 05:57:35;;;;;;;4.20;3.00;;;19.10;99.90;;;;;;5069454;28;20165;-68
2023/07/01 06:00:04;;;;;;;3.27;2.50;;;19.10;99.90;;;;;;5071143;28;20189;-68
2023/07/01 06:02:29;;;;;;;3.33;2.80;;;19.10;99.90;;;;;;5082691;28;20302;-68
2023/07/01 06:04:55;;;;;;;3.00;2.70;;;19.10;99.90;;;;;;5090526;28;20452;-68
2023/07/01 06:07:21;;;;;;;3.73;2.93;;;19.20;99.90;;;;;;5087190;28;20208;-68
2023/07/01 06:09:47;;;;;;;4.20;2.90;;;19.10;99.90;;;;;;5081724;28;20696;-68
2023/07/01 06:12:14;;;;;;;3.20;2.97;;;19.10;99.90;;;;;;5084254;28;20458;-69
2023/07/01 06:14:39;;;;;;;9.63;3.10;;;19.10;99.90;;;;;;5090358;28;20415;-68
2023/07/01 06:17:06;;;;;;;3.83;3.00;;;19.10;99.90;;;;;;5090236;28;20430;-68
2023/07/01 06:19:31;;;;;;;3.97;2.93;;;19.10;99.90;;;;;;5088956;28;20872;-68
2023/07/01 06:21:57;;;;;;;3.03;2.37;;;19.10;99.90;;;;;;5090764;28;20419;-68
2023/07/01 06:24:23;;;;;;;3.93;3.23;;;19.10;99.90;;;;;;5090524;28;20526;-68
2023/07/01 06:26:49;;;;;;;4.13;2.90;;;19.10;99.90;;;;;;5090842;28;20777;-68
2023/07/01 06:29:15;;;;;;;3.37;2.83;;;19.10;99.90;;;;;;5090872;28;20176;-69
2023/07/01 06:31:41;;;;;;;5.33;3.00;;;19.00;99.90;;;;;;5090830;28;20241;-68
2023/07/01 06:34:17;;;;;;;3.63;3.17;;;19.00;99.90;;;;;;5089829;28;20406;-68
2023/07/01 06:36:43;;;;;;;4.87;2.97;;;19.00;99.90;;;;;;5090785;28;20804;-68
2023/07/01 06:39:09;;;;;;;6.93;3.40;;;19.00;99.90;;;;;;5090138;28;20399;-68
2023/07/01 06:41:34;;;;;;;4.57;3.03;;;19.00;99.90;;;;;;5084863;28;20437;-69
2023/07/01 06:44:00;;;;;;;2.83;2.53;;;19.00;99.90;;;;;;5080087;28;20174;-69
2023/07/01 06:46:27;;;;;;;3.40;3.10;;;18.90;99.90;;;;;;5076795;28;20189;-69
2023/07/01 06:48:52;;;;;;;4.03;3.00;;;18.90;99.90;;;;;;5082149;28;20187;-69
2023/07/01 06:51:18;;;;;;;4.23;3.00;;;18.80;99.90;;;;;;5080923;28;20427;-69
2023/07/01 06:53:44;;;;;;;4.47;2.87;;;18.70;99.90;;;;;;5078529;28;20670;-69
2023/07/01 06:56:10;;;;;;;5.13;3.33;;;18.50;99.90;;;;;;5081770;28;20187;-69
2023/07/01 06:58:36;;;;;;;4.20;3.10;;;18.40;99.90;;;;;;5079182;28;20176;-69
2023/07/01 07:01:02;;;;;;;5.23;3.70;;;18.30;99.90;;;;;;5085436;28;20442;-69
2023/07/01 07:03:28;;;;;;;6.43;2.90;;;18.20;99.90;;;;;;5085984;28;20465;-69
2023/07/01 07:05:54;;;;;;;6.70;3.60;;;18.20;99.90;;;;;;5090416;28;20494;-69
2023/07/01 07:08:21;;;;;;;6.23;3.70;;;18.20;99.90;;;;;;5088965;28;20177;-68
2023/07/01 07:10:47;;;;;;;6.50;3.13;;;18.20;99.90;;;;;;5089912;28;20479;-68
2023/07/01 07:13:13;;;;;;;6.10;3.60;;;18.20;99.90;;;;;;5089211;28;21318;-69
2023/07/01 07:15:39;;;;;;;4.47;3.37;;;18.20;99.90;;;;;;5090076;28;20413;-69
2023/07/01 07:18:08;;;;;;;6.83;3.70;;;18.20;99.90;;;;;;5090210;28;20241;-69
2023/07/01 07:20:35;;;;;;;4.57;3.47;;;18.30;99.90;;;;;;5089848;28;20544;-69
2023/07/01 07:23:01;;;;;;;4.70;3.90;;;18.30;99.90;;;;;;5089141;28;20422;-69
2023/07/01 07:25:27;;;;;;;3.77;3.17;;;18.20;99.90;;;;;;5089755;28;20406;-69
2023/07/01 07:27:53;;;;;;;4.60;3.47;;;18.20;99.90;;;;;;5089424;28;20510;-69
2023/07/01 07:30:18;;;;;;;5.60;3.00;;;18.20;99.90;;;;;;5086364;28;20196;-69
2023/07/01 07:32:44;;;;;;;4.93;3.70;;;18.20;99.90;;;;;;5086329;28;20291;-69
2023/07/01 07:35:10;;;;;;;3.83;2.60;;;18.20;99.90;;;;;;5089140;28;20568;-69
2023/07/01 07:37:36;;;;;;;3.77;3.43;;;18.20;99.90;;;;;;5089615;28;20230;-69
2023/07/01 07:40:05;;;;;;;5.07;3.10;;;18.20;99.90;;;;;;5088354;28;20484;-69
2023/07/01 07:42:31;;;;;;;4.60;3.00;;;18.20;99.90;;;;;;5087363;28;20422;-69
2023/07/01 07:44:57;;;;;;;6.70;3.50;;;18.20;99.90;;;;;;5089194;28;20833;-69
2023/07/01 07:47:23;;;;;;;5.93;3.07;;;18.20;99.90;;;;;;5086801;28;20430;-69
2023/07/01 07:49:49;;;;;;;3.93;3.20;;;18.20;99.90;;;;;;5085458;28;20203;-69
2023/07/01 07:52:15;;;;;;;4.43;3.27;;;18.30;99.90;;;;;;5084013;28;20300;-69
2023/07/01 07:54:46;;;;;;;3.70;3.10;;;18.20;99.90;;;;;;5068746;28;20166;-69
2023/07/01 07:57:13;;;;;;;3.50;3.03;;;18.20;99.90;;;;;;5067168;28;20189;-69
2023/07/01 07:59:43;;;;;;;2.80;2.60;;;18.30;99.90;;;;;;5068905;28;20503;-69
2023/07/01 08:02:09;;;;;;;4.50;3.00;;;18.30;99.90;;;;;;5068426;28;20472;-69
2023/07/01 08:04:35;;;;;;;3.20;2.77;;;18.30;99.90;;;;;;5068499;28;20936;-69
2023/07/01 08:07:01;;;;;;;3.03;2.73;;;18.30;99.90;;;;;;5069157;28;20421;-69
2023/07/01 08:09:28;;;;;;;3.17;2.77;;;18.30;99.90;;;;;;5068877;28;21109;-69
2023/07/01 08:11:58;;;;;;;5.70;2.87;;;18.20;99.90;;;;;;5068794;28;20960;-69
2023/07/01 08:14:25;;;;;;;3.83;2.40;;;18.20;99.90;;;;;;5068521;28;20499;-69
2023/07/01 08:16:52;;;;;;;4.93;3.10;;;18.30;99.90;;;;;;5069012;28;20976;-69
2023/07/01 08:19:18;;;;;;;4.60;2.70;;;18.20;99.90;;;;;;5068675;28;20411;-69
2023/07/01 08:21:44;;;;;;;2.77;2.37;;;18.30;99.90;;;;;;5068854;28;20407;-69
2023/07/01 08:24:10;;;;;;;2.70;2.43;;;18.30;99.90;;;;;;5067928;28;20222;-69
2023/07/01 08:26:35;;;;;;;2.57;2.37;;;18.40;99.90;;;;;;5075390;28;20175;-69
2023/07/01 08:29:01;;;;;;;4.40;2.50;;;18.50;99.90;;;;;;5087827;28;20398;-69
2023/07/01 08:31:31;;;;;;;3.73;2.93;;;18.50;99.90;;;;;;5087721;28;20192;-69
2023/07/01 08:33:57;;;;;;;2.93;2.33;;;18.60;99.90;;;;;;5081712;28;20172;-69
2023/07/01 08:36:23;;;;;;;2.93;2.30;;;18.70;99.90;;;;;;5086409;28;20954;-69
2023/07/01 08:38:49;;;;;;;2.60;2.40;;;18.60;99.90;;;;;;5088626;28;20403;-69
2023/07/01 08:41:16;;;;;;;2.90;2.37;;;18.70;99.90;;;;;;5086032;28;20434;-69
2023/07/01 08:43:47;;;;;;;3.00;2.33;;;18.70;99.90;;;;;;5086513;28;20188;-69
2023/07/01 08:46:15;;;;;;;4.13;2.53;;;18.70;99.90;;;;;;5087619;28;20454;-68
2023/07/01 08:48:43;;;;;;;3.23;2.73;;;18.60;99.90;;;;;;5088810;28;20406;-68
2023/07/01 08:51:12;;;;;;;2.53;2.33;;;18.60;99.90;;;;;;5086822;28;20962;-68
2023/07/01 08:53:41;;;;;;;3.37;2.30;;;18.50;99.90;;;;;;5085983;28;20450;-68
2023/07/01 08:56:07;;;;;;;4.37;2.73;;;18.50;99.90;;;;;;5084691;28;20427;-68
2023/07/01 08:58:33;;;;;;;4.37;2.97;;;18.60;99.90;;;;;;5086453;28;20421;-68
2023/07/01 09:00:59;;;;;;;3.60;2.70;;;18.50;99.90;;;;;;5088482;28;20815;-68
2023/07/01 09:03:26;;;;;;;2.77;2.57;;;18.50;99.90;;;;;;5089844;28;20406;-68
2023/07/01 09:05:52;;;;;;;3.00;2.70;;;18.40;99.90;;;;;;5091878;28;20185;-68
2023/07/01 09:08:17;;;;;;;3.10;2.80;;;18.50;99.90;;;;;;5089639;28;20411;-68
2023/07/01 09:10:43;;;;;;;3.90;2.60;;;18.40;99.90;;;;;;5088530;28;20208;-68
2023/07/01 09:13:11;;;;;;;3.70;2.90;;;18.50;99.90;;;;;;5084869;28;20697;-69
2023/07/01 09:15:49;;;;;;;4.77;3.37;;;18.50;99.90;;;;;;5089108;28;20253;-69
2023/07/01 09:18:21;;;;;;;3.27;2.77;;;18.50;99.90;;;;;;5091456;28;20411;-68
2023/07/01 09:20:49;;;;;;;4.00;2.60;;;18.50;99.90;;;;;;5091102;28;20791;-69
2023/07/01 09:23:28;;;;;;;5.00;2.80;;;18.50;99.90;;;;;;5091156;28;20418;-69
2023/07/01 09:26:14;;;;;;;3.50;3.20;;;18.50;99.90;;;;;;5091170;28;20414;-69
2023/07/01 09:28:42;;;;;;;4.43;3.17;;;18.50;99.90;;;;;;5092206;28;20433;-69
2023/07/01 09:31:10;;;;;;;3.20;2.77;;;18.60;99.90;;;;;;5090915;28;20473;-69
2023/07/01 09:33:36;;;;;;;3.30;3.00;;;18.60;99.90;;;;;;5090938;28;20454;-69
2023/07/01 09:36:04;;;;;;;3.90;2.60;;;18.70;99.90;;;;;;5092279;28;20492;-69
2023/07/01 09:38:30;;;;;;;3.50;2.97;;;18.70;99.90;;;;;;5092148;28;20497;-69
2023/07/01 09:41:13;;;;;;;4.83;2.77;;;18.70;99.90;;;;;;5092430;28;21134;-69
2023/07/01 09:43:40;;;;;;;3.27;2.90;;;18.70;99.90;;;;;;5091061;28;20461;-69
2023/07/01 09:46:07;;;;;;;2.80;2.60;;;18.70;99.90;;;;;;5091960;28;20490;-69
2023/07/01 09:48:33;;;;;;;3.77;2.97;;;18.70;99.90;;;;;;5091937;28;20447;-69
2023/07/01 09:51:03;;;;;;;3.17;2.90;;;18.80;99.90;;;;;;5092191;28;21258;-69
2023/07/01 09:53:34;;;;;;;2.97;2.40;;;18.70;99.90;;;;;;5090655;28;20954;-69
2023/07/01 09:56:04;;;;;;;3.20;2.90;;;18.70;99.90;;;;;;5091805;28;20819;-69
2023/07/01 09:58:33;;;;;;;3.43;3.10;;;18.70;99.90;;;;;;5089793;28;20434;-69
2023/07/01 10:01:02;;;;;;;4.30;3.03;;;18.60;99.90;;;;;;5091641;28;20525;-69
2023/07/01 10:03:28;;;;;;;3.10;2.80;;;18.60;99.90;;;;;;5089157;28;20434;-69
2023/07/01 10:05:54;;;;;;;2.93;2.73;;;18.60;99.90;;;;;;5091857;28;20505;-69
2023/07/01 10:08:21;;;;;;;2.83;2.53;;;18.50;99.90;;;;;;5091566;28;20185;-68
2023/07/01 10:11:09;;;;;;;2.80;2.50;;;18.60;99.90;;;;;;5091473;28;20532;-68
2023/07/01 10:13:55;;;;;;;4.00;2.97;;;18.60;99.90;;;;;;5089878;28;20460;-68
2023/07/01 10:16:21;;;;;;;3.30;3.00;;;18.60;99.90;;;;;;5091412;28;20418;-69
2023/07/01 10:18:47;;;;;;;2.40;2.30;;;18.60;99.90;;;;;;5091619;28;20407;-69
2023/07/01 10:21:30;;;;;;;2.50;2.30;;;18.50;99.90;;;;;;5091488;28;20507;-68
2023/07/01 10:24:00;;;;;;;2.80;2.60;;;18.50;99.90;;;;;;5090362;28;20410;-69
2023/07/01 10:26:47;;;;;;;3.27;2.90;;;18.50;99.90;;;;;;5085069;28;20943;-68
2023/07/01 10:29:36;;;;;;;2.77;2.57;;;18.50;99.90;;;;;;5071070;28;20466;-68
2023/07/01 10:32:25;;;;;;;2.63;2.20;;;18.50;99.90;;;;;;5070419;28;20455;-69
2023/07/01 10:34:53;;;;;;;2.70;2.50;;;18.50;99.90;;;;;;5071946;28;20425;-69
2023/07/01 10:37:21;;;;;;;3.03;2.60;;;18.50;99.90;;;;;;5090873;28;20411;-68
2023/07/01 10:39:47;;;;;;;2.57;2.37;;;18.40;99.90;;;;;;5090711;28;20475;-68
2023/07/01 10:42:36;;;;;;;2.60;2.40;;;18.40;99.90;;;;;;5090440;28;20470;-68
2023/07/01 10:45:25;;;;;;;2.50;2.30;;;18.40;99.90;;;;;;5088002;28;20188;-69
2023/07/01 10:47:51;;;;;;;2.40;2.13;;;18.40;99.90;;;;;;5087244;28;20888;-69
2023/07/01 10:50:20;;;;;;;2.70;2.50;;;18.50;99.90;;;;;;5087449;28;20516;-68
2023/07/01 10:52:58;;;;;;;2.50;2.10;;;18.50;99.90;;;;;;5084554;28;20235;-68
2023/07/01 10:55:49;;;;;;;2.37;2.17;;;18.50;99.90;;;;;;5081244;28;20422;-68
2023/07/01 10:58:21;;;;;;;2.50;2.30;;;18.50;99.90;;;;;;5079628;28;20421;-68
2023/07/01 11:00:52;;;;;;;2.20;2.10;;;18.50;99.90;;;;;;5089357;28;20442;-68
2023/07/01 11:03:36;;;;;;;1.87;1.77;;;18.60;99.90;;;;;;5086531;28;20418;-69
2023/07/01 11:06:03;;;;;;;1.87;1.77;;;18.60;99.90;;;;;;5089110;28;20449;-68
2023/07/01 11:08:31;;;;;;;1.70;1.60;;;18.60;99.90;;;;;;5085588;28;20579;-68
2023/07/01 11:10:57;;;;;;;1.80;1.70;;;18.70;99.90;;;;;;5085761;28;20522;-68
2023/07/01 11:13:24;;;;;;;2.00;1.90;;;18.80;99.90;;;;;;5089020;28;20453;-68
2023/07/01 11:16:02;;;;;;;1.57;1.47;;;18.90;99.90;;;;;;5090073;28;20741;-68
2023/07/01 11:18:49;;;;;;;1.50;1.40;;;18.90;99.90;;;;;;5090279;28;20886;-68
2023/07/01 11:21:20;;;;;;;1.30;1.20;;;19.00;99.90;;;;;;5079368;28;20435;-68
2023/07/01 11:23:56;;;;;;;1.50;1.40;;;19.00;99.90;;;;;;5077863;28;20407;-68
2023/07/01 11:26:28;;;;;;;1.30;1.20;;;19.00;99.90;;;;;;5078666;28;20450;-69
2023/07/01 11:28:54;;;;;;;1.30;1.20;;;19.00;99.90;;;;;;5077802;28;20426;-69
2023/07/01 11:31:39;;;;;;;1.80;1.70;;;19.00;99.90;;;;;;5084714;28;20503;-68
2023/07/01 11:34:04;;;;;;;1.10;1.00;;;18.90;99.90;;;;;;5078741;28;20180;-68
2023/07/01 11:36:43;;;;;;;1.03;0.93;;;18.80;99.90;;;;;;5083934;28;20414;-69
2023/07/01 11:39:13;;;;;;;1.10;1.00;;;18.80;99.90;;;;;;5078486;28;20173;-69
2023/07/01 11:41:40;;;;;;;1.23;1.13;;;18.70;99.90;;;;;;5079467;28;20481;-69
2023/07/01 11:44:08;;;;;;;1.30;1.20;;;18.70;99.90;;;;;;5079438;28;20809;-69
2023/07/01 11:46:37;;;;;;;0.93;0.90;;;18.70;99.90;;;;;;5079603;28;20903;-68
2023/07/01 11:49:32;;;;;;;0.80;0.80;;;18.60;99.90;;;;;;5077100;28;20908;-68
2023/07/01 11:52:02;;;;;;;1.20;1.10;;;18.70;99.90;;;;;;5081873;28;20499;-71
2023/07/01 11:54:43;;;;;;;0.80;0.80;;;18.60;99.90;;;;;;5081980;28;20442;-68
2023/07/01 11:57:20;;;;;;;0.93;0.93;;;18.60;99.90;;;;;;5071849;28;20459;-69
2023/07/01 11:59:48;;;;;;;3.37;1.80;;;18.60;99.90;;;;;;5067209;28;20821;-69
2023/07/01 12:02:14;;;;;;;1.50;0.83;;;18.60;99.90;;;;;;5077963;28;20965;-69
2023/07/01 12:04:40;;;;;;;1.63;1.03;;;18.50;99.90;;;;;;5079920;28;20549;-69
2023/07/01 12:07:15;;;;;;;0.90;0.80;;;18.50;99.90;;;;;;5084393;28;20529;-69
2023/07/01 12:09:43;;;;;;;1.30;1.20;;;18.50;99.90;;;;;;5077790;28;20257;-70
2023/07/01 12:12:35;;;;;;;1.20;1.10;;;18.40;99.90;;;;;;5082249;28;20465;-69
2023/07/01 12:15:01;;;;;;;1.20;1.03;;;18.40;99.90;;;;;;5082179;28;20452;-69
2023/07/01 12:17:29;;;;;;;1.43;1.13;;;18.40;99.90;;;;;;5089860;28;20438;-69
2023/07/01 12:19:55;;;;;;;4.53;1.73;;;18.50;99.90;;;;;;5087725;28;20453;-68
2023/07/01 12:22:20;;;;;;;3.77;1.47;;;18.40;99.90;;;;;;5079046;28;20438;-69
2023/07/01 12:24:56;;;;;;;1.53;1.10;;;18.40;99.90;;;;;;5077835;28;20244;-69
2023/07/01 12:27:22;;;;;;;1.33;1.23;;;18.40;99.90;;;;;;5088271;28;20257;-69
2023/07/01 12:29:48;;;;;;;1.30;1.20;;;18.40;99.90;;;;;;5090202;28;20450;-69
2023/07/01 12:32:13;;;;;;;1.80;1.30;;;18.50;99.90;;;;;;5077916;28;20469;-69
2023/07/01 12:34:39;;;;;;;2.20;1.53;;;18.50;99.90;;;;;;5080323;28;20176;-69
2023/07/01 12:37:07;;;;;;;1.90;1.80;;;18.50;99.90;;;;;;5087826;28;20180;-68
2023/07/01 12:39:33;;;;;;;1.70;1.60;;;18.60;99.90;;;;;;5080809;28;20192;-68
2023/07/01 12:41:59;;;;;;;2.23;1.90;;;18.60;99.90;;;;;;5086512;28;20430;-69
2023/07/01 12:44:25;;;;;;;1.93;1.77;;;18.60;99.90;;;;;;5086755;28;20765;-68
2023/07/01 12:46:51;;;;;;;2.87;2.30;;;18.60;99.90;;;;;;5089209;28;20785;-69
2023/07/01 12:49:17;;;;;;;1.90;1.80;;;18.70;99.90;;;;;;5082920;28;20423;-69
2023/07/01 12:51:44;;;;;;;2.83;2.47;;;18.80;99.90;;;;;;5086248;28;20172;-69
2023/07/01 12:54:10;;;;;;;2.63;2.43;;;18.80;99.90;;;;;;5087315;28;20411;-69